Time;durP1;ratioP1;P1;durP2;ratioP2;P2;SDS_P1;SDS_P2;PMS_P1;PMS_P2;Temp;Humidity;BMP_temperature;BMP_pressure;BME280_temperature;BME280_humidity;BME280_pressure;Samples;Min_cycle;Max_cycle;Signal;HPM_P1;HPM_P2
2024/03/15 00:00:42;;;;;;;4.70;4.00;;;;;;;11.18;100.00;154231.00;4945513;28;20505;-75
2024/03/15 00:03:10;;;;;;;4.30;3.73;;;;;;;11.16;100.00;154225.84;4952267;28;20483;-75
2024/03/15 00:05:37;;;;;;;4.23;3.57;;;;;;;11.15;100.00;154221.94;4950715;28;20437;-75
2024/03/15 00:08:04;;;;;;;4.23;3.80;;;;;;;11.13;100.00;154216.75;4970781;28;20471;-76
2024/03/15 00:10:31;;;;;;;3.97;3.37;;;;;;;11.11;100.00;154211.59;4961419;28;20508;-75
2024/03/15 00:12:57;;;;;;;4.30;3.67;;;;;;;11.06;100.00;154199.94;4971649;28;20486;-75
2024/03/15 00:15:25;;;;;;;5.00;4.60;;;;;;;11.03;100.00;154192.16;4972179;28;20449;-75
2024/03/15 00:17:53;;;;;;;7.23;4.50;;;;;;;11.00;100.00;154185.69;4953341;28;20441;-75
2024/03/15 00:20:20;;;;;;;4.43;4.00;;;;;;;10.98;100.00;154180.53;4968344;28;20590;-76
2024/03/15 00:22:47;;;;;;;4.63;3.80;;;;;;;10.99;100.00;154183.09;4953425;28;20463;-75
2024/03/15 00:25:14;;;;;;;5.33;4.33;;;;;;;10.95;100.00;154172.75;4961303;28;20457;-75
2024/03/15 00:27:41;;;;;;;5.03;4.10;;;;;;;10.96;100.00;154175.31;4956620;28;20493;-75
2024/03/15 00:30:08;;;;;;;5.07;3.93;;;;;;;10.93;100.00;154167.53;4971376;28;20520;-75
2024/03/15 00:32:35;;;;;;;4.83;4.30;;;;;;;10.94;100.00;154170.13;4936165;28;20493;-75
2024/03/15 00:35:01;;;;;;;3.90;3.47;;;;;;;10.95;100.00;154172.75;4960855;28;21221;-75
2024/03/15 00:37:28;;;;;;;5.50;4.07;;;;;;;10.94;100.00;154168.81;4952216;28;20450;-75
2024/03/15 00:39:55;;;;;;;4.60;3.80;;;;;;;10.91;100.00;154161.06;4956552;28;20466;-75
2024/03/15 00:42:22;;;;;;;4.80;4.10;;;;;;;10.90;100.00;154159.78;4957474;28;20516;-75
2024/03/15 00:44:49;;;;;;;4.37;3.60;;;;;;;10.86;100.00;154149.41;4957430;28;20575;-75
2024/03/15 00:47:15;;;;;;;5.63;4.07;;;;;;;10.86;100.00;154149.41;4950045;28;21037;-75
2024/03/15 00:49:42;;;;;;;4.47;4.07;;;;;;;10.87;100.00;154152.03;4956233;28;20472;-75
2024/03/15 00:52:09;;;;;;;4.50;4.00;;;;;;;10.86;100.00;154149.41;4956086;28;20556;-75
2024/03/15 00:54:36;;;;;;;5.00;4.10;;;;;;;10.84;100.00;154144.25;4965991;28;20957;-75
2024/03/15 00:57:05;;;;;;;4.97;4.50;;;;;;;10.83;100.00;154141.63;4934463;28;20548;-75
2024/03/15 00:59:31;;;;;;;5.00;4.50;;;;;;;10.79;100.00;154131.28;4952672;28;20450;-75
2024/03/15 01:01:59;;;;;;;4.60;3.90;;;;;;;10.80;100.00;154132.59;4945385;28;20532;-75
2024/03/15 01:04:27;;;;;;;4.43;3.93;;;;;;;10.83;100.00;154140.31;4952976;28;21139;-75
2024/03/15 01:06:54;;;;;;;4.73;4.00;;;;;;;10.79;100.00;154131.28;4961008;28;20486;-75
2024/03/15 01:09:21;;;;;;;4.03;3.63;;;;;;;10.81;100.00;154136.47;4954986;28;20476;-75
2024/03/15 01:11:48;;;;;;;5.23;3.70;;;;;;;10.83;100.00;154140.31;4969665;28;20572;-75
2024/03/15 01:14:15;;;;;;;5.23;4.60;;;;;;;10.79;100.00;154131.28;4936952;28;20447;-75
2024/03/15 01:16:46;;;;;;;4.87;3.93;;;;;;;10.79;100.00;154131.28;4968269;28;22069;-75
2024/03/15 01:19:13;;;;;;;4.53;3.70;;;;;;;10.78;100.00;154128.69;4966485;28;20453;-75
2024/03/15 01:21:40;;;;;;;4.23;3.70;;;;;;;10.75;100.00;154120.91;4954362;28;20453;-75
2024/03/15 01:24:07;;;;;;;4.50;4.10;;;;;;;10.74;100.00;154118.34;4949405;28;20976;-75
2024/03/15 01:26:35;;;;;;;4.27;3.83;;;;;;;10.74;100.00;154117.03;4955294;28;20445;-75
2024/03/15 01:29:02;;;;;;;4.60;4.20;;;;;;;10.71;100.00;154110.56;4972366;28;20471;-75
2024/03/15 01:31:29;;;;;;;3.80;3.50;;;;;;;10.71;100.00;154110.56;4969677;28;20461;-75
2024/03/15 01:33:56;;;;;;;4.77;4.03;;;;;;;10.68;100.00;154101.50;4954176;28;20449;-75
2024/03/15 01:36:23;;;;;;;4.07;3.67;;;;;;;10.66;100.00;154097.63;4954975;28;20442;-75
2024/03/15 01:38:49;;;;;;;6.37;3.80;;;;;;;10.65;100.00;154095.03;4970598;28;20523;-75
2024/03/15 01:41:16;;;;;;;4.83;3.93;;;;;;;10.62;100.00;154087.25;4954858;28;20449;-75
2024/03/15 01:43:47;;;;;;;4.40;4.00;;;;;;;10.64;100.00;154092.47;4971468;28;20900;-74
2024/03/15 01:46:14;;;;;;;4.03;3.50;;;;;;;10.69;100.00;154104.09;4968634;28;20544;-75
2024/03/15 01:48:40;;;;;;;4.60;4.03;;;;;;;10.65;100.00;154093.72;4947386;28;20453;-75
2024/03/15 01:51:07;;;;;;;4.27;3.87;;;;;;;10.64;100.00;154092.47;4939228;28;20534;-75
2024/03/15 01:53:34;;;;;;;4.57;3.77;;;;;;;10.67;100.00;154100.19;4955305;28;20448;-75
2024/03/15 01:56:01;;;;;;;3.57;3.27;;;;;;;10.62;100.00;154087.25;4970715;28;20457;-75
2024/03/15 01:58:27;;;;;;;4.37;3.97;;;;;;;10.62;100.00;154087.25;4969471;28;20453;-75
2024/03/15 02:00:56;;;;;;;4.30;3.90;;;;;;;10.62;100.00;154085.94;4971106;28;20454;-75
2024/03/15 02:03:23;;;;;;;3.50;3.13;;;;;;;10.60;100.00;154080.78;4937791;28;20448;-75
2024/03/15 02:05:50;;;;;;;4.57;3.87;;;;;;;10.58;100.00;154076.91;4951368;28;20528;-75
2024/03/15 02:08:17;;;;;;;3.83;3.37;;;;;;;10.55;100.00;154069.13;4951990;28;20438;-75
2024/03/15 02:10:44;;;;;;;3.73;3.43;;;;;;;10.52;100.00;154061.34;4971154;28;20528;-74
2024/03/15 02:13:11;;;;;;;4.10;3.70;;;;;;;10.49;100.00;154053.59;4969595;28;20492;-75
2024/03/15 02:15:38;;;;;;;6.00;4.27;;;;;;;10.47;100.00;154048.41;4950630;28;20846;-75
2024/03/15 02:18:05;;;;;;;4.83;4.33;;;;;;;10.47;100.00;154048.41;4970830;28;20445;-75
2024/03/15 02:20:31;;;;;;;5.20;4.03;;;;;;;10.45;100.00;154043.25;4970890;28;20445;-75
2024/03/15 02:22:58;;;;;;;5.03;4.07;;;;;;;10.40;100.00;154030.31;4969726;28;20476;-75
2024/03/15 02:25:25;;;;;;;4.43;2.93;;;;;;;10.39;100.00;154027.69;4952283;28;20469;-75
2024/03/15 02:27:51;;;;;;;3.73;3.43;;;;;;;10.40;100.00;154030.31;4954076;28;20940;-75
2024/03/15 02:30:20;;;;;;;3.67;3.37;;;;;;;10.38;100.00;154025.09;4954088;28;20446;-75
2024/03/15 02:32:53;;;;;;;3.80;3.40;;;;;;;10.33;100.00;154013.47;4936184;28;20478;-75
2024/03/15 02:35:19;;;;;;;5.13;3.67;;;;;;;10.33;100.00;154012.16;4967054;28;20438;-75
2024/03/15 02:37:47;;;;;;;5.23;4.20;;;;;;;10.32;100.00;154009.59;4954487;28;20788;-75
2024/03/15 02:40:14;;;;;;;4.50;4.10;;;;;;;10.28;100.00;153999.22;4940880;28;20504;-75
2024/03/15 02:42:42;;;;;;;3.77;3.37;;;;;;;10.24;100.00;153990.19;4951218;28;20992;-75
2024/03/15 02:45:09;;;;;;;4.20;3.23;;;;;;;10.19;100.00;153977.19;4950065;28;20466;-75
2024/03/15 02:47:38;;;;;;;4.97;3.97;;;;;;;10.15;100.00;153965.56;4951397;28;20864;-75
2024/03/15 02:50:06;;;;;;;4.70;3.83;;;;;;;10.16;100.00;153968.16;4937809;28;20462;-75
2024/03/15 02:52:33;;;;;;;4.07;3.67;;;;;;;10.14;100.00;153964.25;4969913;28;20477;-76
2024/03/15 02:54:59;;;;;;;4.33;3.70;;;;;;;10.06;100.00;153942.25;4958669;28;20450;-76
2024/03/15 02:57:26;;;;;;;4.23;3.83;;;;;;;10.03;100.00;153935.78;4965771;28;20892;-76
2024/03/15 02:59:55;;;;;;;4.23;3.80;;;;;;;10.03;100.00;153935.78;4950103;28;20468;-76
2024/03/15 03:02:23;;;;;;;5.17;4.20;;;;;;;10.03;100.00;153935.78;4953571;28;20520;-76
2024/03/15 03:04:50;;;;;;;4.30;3.90;;;;;;;10.03;100.00;153935.78;4962297;28;20500;-76
2024/03/15 03:07:16;;;;;;;5.20;4.17;;;;;;;10.03;100.00;153934.47;4953226;28;20478;-76
2024/03/15 03:09:43;;;;;;;4.57;3.90;;;;;;;10.03;100.00;153934.47;4955918;28;20456;-76
2024/03/15 03:12:10;;;;;;;4.50;3.90;;;;;;;10.01;100.00;153929.25;4971999;28;20783;-76
2024/03/15 03:14:36;;;;;;;6.00;3.77;;;;;;;9.98;100.00;153922.78;4972844;28;20461;-76
2024/03/15 03:17:03;;;;;;;4.90;4.23;;;;;;;10.00;100.00;153926.69;4974068;28;20892;-76
2024/03/15 03:19:30;;;;;;;7.10;5.67;;;;;;;9.98;100.00;153922.78;4954393;28;20513;-76
2024/03/15 03:21:56;;;;;;;7.77;5.33;;;;;;;9.99;100.00;153925.38;4952526;28;20860;-76
2024/03/15 03:24:23;;;;;;;6.67;5.87;;;;;;;10.00;100.00;153926.69;4953619;28;21011;-76
2024/03/15 03:26:51;;;;;;;6.00;5.10;;;;;;;9.99;100.00;153924.09;4958001;28;20468;-76
2024/03/15 03:29:18;;;;;;;8.17;4.97;;;;;;;10.00;100.00;153926.69;4980186;28;20441;-76
2024/03/15 03:31:45;;;;;;;4.90;4.37;;;;;;;9.94;100.00;153911.16;4956174;28;20472;-76
2024/03/15 03:34:12;;;;;;;5.00;3.80;;;;;;;9.94;100.00;153912.47;4955544;28;20458;-76
2024/03/15 03:36:39;;;;;;;6.73;4.30;;;;;;;9.87;100.00;153894.34;4943290;28;20507;-76
2024/03/15 03:39:08;;;;;;;6.80;4.00;;;;;;;9.85;100.00;153889.16;4955670;28;20766;-76
2024/03/15 03:41:34;;;;;;;6.13;3.83;;;;;;;9.82;100.00;153882.69;4956092;28;20452;-76
2024/03/15 03:44:01;;;;;;;5.67;3.73;;;;;;;9.82;100.00;153881.41;4957395;28;20954;-76
2024/03/15 03:46:28;;;;;;;4.10;3.70;;;;;;;9.82;100.00;153881.41;4957200;28;20468;-76
2024/03/15 03:48:54;;;;;;;4.63;4.20;;;;;;;9.74;100.00;153861.97;4954057;28;20917;-76
2024/03/15 03:51:21;;;;;;;4.23;3.40;;;;;;;9.72;100.00;153856.81;4956130;28;20500;-76
2024/03/15 03:53:48;;;;;;;3.97;3.43;;;;;;;9.72;100.00;153856.81;4957314;28;20559;-76
2024/03/15 03:56:15;;;;;;;3.63;3.20;;;;;;;9.70;100.00;153851.63;4956874;28;20464;-76
2024/03/15 03:58:44;;;;;;;4.00;3.13;;;;;;;9.67;100.00;153843.88;4969575;28;20465;-76
2024/03/15 04:01:11;;;;;;;3.13;2.70;;;;;;;9.67;100.00;153842.56;4953837;28;20454;-75
2024/03/15 04:03:37;;;;;;;3.53;3.10;;;;;;;9.65;100.00;153838.72;4969648;28;20558;-76
2024/03/15 04:06:05;;;;;;;4.30;3.17;;;;;;;9.69;100.00;153849.03;4981200;28;20477;-76
2024/03/15 04:08:33;;;;;;;3.60;3.13;;;;;;;9.68;100.00;153845.16;4975447;28;21107;-76
2024/03/15 04:11:01;;;;;;;4.20;3.20;;;;;;;9.72;100.00;153855.50;4973224;28;20962;-76
2024/03/15 04:13:27;;;;;;;3.17;2.87;;;;;;;9.72;100.00;153855.50;4963862;28;20462;-76
2024/03/15 04:15:54;;;;;;;3.90;3.27;;;;;;;9.73;100.00;153858.09;4951468;28;20480;-76
2024/03/15 04:18:21;;;;;;;4.27;3.63;;;;;;;9.71;100.00;153854.25;4945005;28;20457;-76
2024/03/15 04:20:48;;;;;;;3.23;2.90;;;;;;;9.72;100.00;153855.50;4972727;28;20532;-76
2024/03/15 04:23:20;;;;;;;4.30;3.03;;;;;;;9.68;100.00;153845.16;4979195;28;20456;-76
2024/03/15 04:25:48;;;;;;;3.30;2.93;;;;;;;9.69;100.00;153849.03;4964083;28;20527;-76
2024/03/15 04:28:18;;;;;;;4.40;3.37;;;;;;;9.69;100.00;153849.03;4956878;28;20446;-76
2024/03/15 04:30:45;;;;;;;2.83;2.63;;;;;;;9.68;100.00;153845.16;4970852;28;20518;-76
2024/03/15 04:33:12;;;;;;;3.20;2.80;;;;;;;9.68;100.00;153845.16;4971440;28;20575;-76
2024/03/15 04:35:40;;;;;;;3.30;3.00;;;;;;;9.66;100.00;153840.00;4940006;28;20434;-76
2024/03/15 04:38:06;;;;;;;3.20;2.90;;;;;;;9.64;100.00;153836.09;4957441;28;20976;-76
2024/03/15 04:40:34;;;;;;;3.67;3.27;;;;;;;9.66;100.00;153840.00;4972641;28;20441;-76
2024/03/15 04:43:01;;;;;;;3.30;2.73;;;;;;;9.70;100.00;153850.34;4955421;28;20899;-76
2024/03/15 04:45:31;;;;;;;3.80;3.10;;;;;;;9.68;100.00;153846.47;4957496;28;20478;-76
2024/03/15 04:48:00;;;;;;;5.70;3.07;;;;;;;9.68;100.00;153846.47;4955112;28;20476;-77
2024/03/15 04:50:49;;;;;;;4.30;3.07;;;;;;;9.70;100.00;153850.34;4968573;28;20948;-76
2024/03/15 04:53:20;;;;;;;2.87;2.67;;;;;;;9.72;100.00;153855.50;4960842;28;20911;-76
2024/03/15 04:55:52;;;;;;;3.13;2.83;;;;;;;9.73;100.00;153859.41;4954139;28;20467;-76
2024/03/15 04:58:43;;;;;;;3.47;3.17;;;;;;;9.74;100.00;153861.97;4947788;28;20480;-75
2024/03/15 05:04:26;;;;;;;3.63;2.90;;;;;;;9.78;100.00;153871.03;4949918;28;21015;-75
2024/03/15 05:07:03;;;;;;;3.10;2.40;;;;;;;9.78;100.00;153872.34;4962428;28;20510;-77
2024/03/15 05:09:30;;;;;;;3.50;2.70;;;;;;;9.80;100.00;153877.50;4928452;28;20469;-76
2024/03/15 05:11:58;;;;;;;3.50;2.70;;;;;;;9.80;100.00;153877.50;4941100;28;20445;-76
2024/03/15 05:14:24;;;;;;;2.93;2.60;;;;;;;9.77;100.00;153869.75;4957215;28;20462;-76
2024/03/15 05:16:54;;;;;;;2.97;2.57;;;;;;;9.74;100.00;153861.97;4944302;28;20447;-76
2024/03/15 05:19:21;;;;;;;3.20;2.40;;;;;;;9.73;100.00;153859.41;4936653;28;20438;-76
2024/03/15 05:21:49;;;;;;;3.43;2.70;;;;;;;9.71;100.00;153854.25;4927537;28;20530;-76
2024/03/15 05:24:16;;;;;;;2.63;2.27;;;;;;;9.72;100.00;153856.81;4938460;28;20529;-75
2024/03/15 05:26:47;;;;;;;7.23;2.90;;;;;;;9.73;100.00;153859.41;4961316;28;20504;-75
2024/03/15 05:29:14;;;;;;;4.90;2.40;;;;;;;9.73;100.00;153858.09;4922169;28;20483;-75
2024/03/15 05:31:41;;;;;;;3.20;2.70;;;;;;;9.70;100.00;153851.63;4940616;28;20503;-75
2024/03/15 05:34:08;;;;;;;3.03;2.73;;;;;;;9.72;100.00;153855.50;4944392;28;20590;-75
2024/03/15 05:36:35;;;;;;;3.40;2.70;;;;;;;9.70;100.00;153851.63;4925122;28;20477;-75
2024/03/15 05:39:01;;;;;;;2.60;2.40;;;;;;;9.68;100.00;153846.47;4939694;28;20969;-75
2024/03/15 05:41:28;;;;;;;2.93;2.33;;;;;;;9.67;100.00;153843.88;4946584;28;20812;-74
2024/03/15 05:43:55;;;;;;;3.97;2.97;;;;;;;9.65;100.00;153838.72;4924321;28;20505;-75
2024/03/15 05:46:22;;;;;;;2.50;2.30;;;;;;;9.63;100.00;153832.25;4936936;28;20478;-75
2024/03/15 05:48:48;;;;;;;3.30;3.00;;;;;;;9.59;100.00;153823.16;4934956;28;20455;-75
2024/03/15 05:51:15;;;;;;;2.80;2.47;;;;;;;9.59;100.00;153823.16;4935297;28;20481;-75
2024/03/15 05:53:41;;;;;;;3.57;2.40;;;;;;;9.61;100.00;153828.34;4959448;28;21073;-75
2024/03/15 05:56:09;;;;;;;2.80;2.50;;;;;;;9.61;100.00;153828.34;4955657;28;20513;-75
2024/03/15 05:58:37;;;;;;;3.80;2.40;;;;;;;9.63;100.00;153833.53;4956541;28;20534;-75
2024/03/15 06:01:04;;;;;;;2.90;2.13;;;;;;;9.67;100.00;153843.88;4921551;28;20486;-75
2024/03/15 06:03:36;;;;;;;3.13;2.83;;;;;;;9.70;100.00;153850.34;4948161;28;20442;-75
2024/03/15 06:06:07;;;;;;;3.07;2.43;;;;;;;9.69;100.00;153849.03;4948219;28;20467;-76
2024/03/15 06:08:39;;;;;;;3.10;2.73;;;;;;;9.72;100.00;153856.81;4948436;28;20984;-75
2024/03/15 06:11:06;;;;;;;4.20;2.70;;;;;;;9.73;100.00;153858.09;4964281;28;20548;-75
2024/03/15 06:16:25;;;;;;;3.30;2.70;;;;;;;9.79;100.00;153874.91;4910345;29;21029;-75
2024/03/15 06:19:01;;;;;;;4.23;2.80;;;;;;;9.81;100.00;153878.81;4922428;28;21007;-75
2024/03/15 06:21:28;;;;;;;4.70;3.53;;;;;;;9.84;100.00;153886.59;4933302;29;20585;-75
2024/03/15 06:23:54;;;;;;;5.33;3.77;;;;;;;9.88;100.00;153896.91;4920501;28;20499;-75
2024/03/15 06:26:22;;;;;;;2.67;2.47;;;;;;;9.93;100.00;153908.59;4915731;29;20585;-75
2024/03/15 06:28:49;;;;;;;2.90;2.70;;;;;;;9.97;100.00;153920.22;4919905;28;20502;-75
2024/03/15 06:31:16;;;;;;;3.10;2.50;;;;;;;10.00;100.00;153928.00;4921862;28;20986;-75
2024/03/15 06:33:43;;;;;;;3.93;2.70;;;;;;;10.06;100.00;153943.50;4909239;28;21048;-75
2024/03/15 06:36:16;;;;;;;2.60;2.40;;;;;;;10.13;100.00;153960.41;4905359;29;20472;-75
2024/03/15 06:38:53;;;;;;;3.67;2.53;;;;;;;10.19;100.00;153975.94;4917467;28;20492;-75
2024/03/15 06:41:29;;;;;;;3.03;2.70;;;;;;;10.29;100.00;154001.81;4919604;28;20541;-76
2024/03/15 06:44:06;;;;;;;3.60;2.67;;;;;;;10.36;100.00;154019.94;4922075;29;20483;-76
2024/03/15 06:46:52;;;;;;;3.37;2.67;;;;;;;10.39;100.00;154029.00;4922968;28;20475;-75
2024/03/15 06:49:24;;;;;;;2.83;2.57;;;;;;;10.48;100.00;154051.03;4966998;28;20814;-75
2024/03/15 06:54:41;;;;;;;3.40;2.63;;;;;;;10.63;100.00;154089.84;4953314;28;20544;-75
2024/03/15 06:57:09;;;;;;;3.47;2.60;;;;;;;10.77;100.00;154126.13;4944884;28;20459;-75
2024/03/15 06:59:36;;;;;;;3.20;2.90;;;;;;;10.96;99.74;154175.31;4960593;28;20460;-76
2024/03/15 07:02:03;;;;;;;3.60;2.70;;;;;;;11.13;99.77;154216.75;4960262;28;20485;-76
2024/03/15 07:04:29;;;;;;;3.40;2.87;;;;;;;11.34;98.76;154271.16;4946807;28;21003;-76
2024/03/15 07:06:56;;;;;;;3.70;2.80;;;;;;;11.56;97.76;154328.19;4945104;28;20481;-75
2024/03/15 07:09:23;;;;;;;4.63;2.57;;;;;;;11.78;95.98;154383.97;4958073;28;20462;-76
2024/03/15 07:11:50;;;;;;;3.73;2.50;;;;;;;11.89;94.96;154413.75;4952657;28;20460;-76
2024/03/15 07:14:17;;;;;;;3.10;2.50;;;;;;;11.99;94.07;154438.41;4966709;28;20458;-76
2024/03/15 07:16:44;;;;;;;3.03;2.57;;;;;;;12.15;93.43;154481.16;4943929;28;20466;-76
2024/03/15 07:19:13;;;;;;;3.70;2.13;;;;;;;12.46;92.70;154560.28;4944950;28;20453;-75
2024/03/15 07:21:40;;;;;;;3.30;2.73;;;;;;;12.73;92.21;154629.00;4933431;28;20769;-75
2024/03/15 07:24:07;;;;;;;3.40;2.47;;;;;;;12.94;90.01;154683.50;4945977;28;20465;-76
2024/03/15 07:26:34;;;;;;;2.70;2.40;;;;;;;13.15;90.46;154736.72;4966705;28;20473;-76
2024/03/15 07:29:01;;;;;;;3.73;2.27;;;;;;;13.36;88.65;154792.53;4935996;28;20461;-76
2024/03/15 07:31:28;;;;;;;2.80;2.27;;;;;;;13.61;87.22;154856.06;4959538;28;20471;-76
2024/03/15 07:33:55;;;;;;;3.83;2.47;;;;;;;13.82;85.25;154909.34;4959711;28;20457;-76
2024/03/15 07:36:24;;;;;;;2.83;2.20;;;;;;;14.04;84.64;154966.41;4947043;28;20466;-76
2024/03/15 07:38:51;;;;;;;3.07;2.50;;;;;;;14.22;84.18;155013.16;4961890;28;20454;-76
2024/03/15 07:41:18;;;;;;;3.30;2.27;;;;;;;14.40;83.36;155059.94;4961721;28;20520;-76
2024/03/15 07:43:45;;;;;;;2.60;2.40;;;;;;;14.64;81.82;155122.28;4965492;28;20464;-76
2024/03/15 07:46:12;;;;;;;3.00;2.30;;;;;;;14.90;81.87;155187.28;4959354;28;21183;-76
2024/03/15 07:48:41;;;;;;;3.17;2.97;;;;;;;15.05;79.79;155227.53;4965225;28;20464;-76
2024/03/15 07:51:08;;;;;;;2.90;2.17;;;;;;;15.27;77.59;155283.44;4942105;28;20463;-76
2024/03/15 07:53:35;;;;;;;2.70;2.40;;;;;;;15.65;76.73;155382.22;4958256;28;20437;-76
2024/03/15 07:56:03;;;;;;;3.23;2.50;;;;;;;15.89;74.79;155442.00;4952378;28;20484;-76
2024/03/15 07:58:31;;;;;;;3.33;2.43;;;;;;;16.04;72.23;155482.38;4970769;28;20460;-76
2024/03/15 08:00:58;;;;;;;2.63;2.40;;;;;;;16.30;73.22;155548.66;4960857;28;20500;-77
2024/03/15 08:03:25;;;;;;;3.33;2.50;;;;;;;16.44;70.48;155586.38;4971148;28;20475;-76
2024/03/15 08:05:52;;;;;;;3.20;2.43;;;;;;;16.63;69.80;155634.53;4950947;28;20485;-76
2024/03/15 08:08:19;;;;;;;3.20;2.50;;;;;;;16.80;69.14;155678.78;4962265;28;21050;-76
2024/03/15 08:10:46;;;;;;;2.97;2.10;;;;;;;16.94;70.65;155713.94;4960732;28;20469;-76
2024/03/15 08:13:13;;;;;;;3.87;2.97;;;;;;;16.94;67.84;155715.19;4958708;28;20449;-76
2024/03/15 08:15:41;;;;;;;3.77;2.53;;;;;;;16.99;70.25;155728.25;4936545;28;20554;-76
2024/03/15 08:18:08;;;;;;;3.90;2.77;;;;;;;16.96;68.61;155719.13;4962658;28;20485;-76
2024/03/15 08:20:34;;;;;;;3.53;2.40;;;;;;;16.91;68.33;155707.44;4965198;28;20847;-76
2024/03/15 08:23:02;;;;;;;3.13;2.33;;;;;;;16.83;68.61;155685.31;4936632;28;20553;-76
2024/03/15 08:25:31;;;;;;;3.20;2.60;;;;;;;16.75;68.67;155665.78;4950878;28;20489;-76
2024/03/15 08:27:58;;;;;;;2.40;2.20;;;;;;;16.72;69.08;155656.66;4967771;28;20456;-76
2024/03/15 08:30:25;;;;;;;3.00;2.30;;;;;;;16.60;70.42;155626.72;4965773;28;20489;-76
2024/03/15 08:32:53;;;;;;;5.50;2.77;;;;;;;16.55;70.50;155613.72;4958327;28;20842;-76
2024/03/15 08:35:20;;;;;;;2.33;2.13;;;;;;;16.57;70.71;155618.97;4968301;28;20493;-76
2024/03/15 08:37:46;;;;;;;2.43;2.10;;;;;;;16.50;68.90;155600.66;4944848;28;20956;-76
2024/03/15 08:40:14;;;;;;;2.90;2.27;;;;;;;16.40;69.68;155574.66;4959990;28;20454;-76
2024/03/15 08:42:41;;;;;;;3.07;2.33;;;;;;;16.38;72.97;155569.47;4960739;28;20490;-76
2024/03/15 08:45:08;;;;;;;4.67;2.40;;;;;;;16.28;70.21;155544.75;4961717;28;20465;-76
2024/03/15 08:47:37;;;;;;;2.90;2.23;;;;;;;16.28;69.28;155543.47;4954635;28;20473;-75
2024/03/15 08:50:07;;;;;;;2.40;2.20;;;;;;;16.27;72.14;155540.84;4962709;28;20477;-76
2024/03/15 08:52:34;;;;;;;2.60;2.10;;;;;;;16.21;71.87;155525.25;4968646;28;20453;-76
2024/03/15 08:55:00;;;;;;;3.53;2.60;;;;;;;16.19;71.37;155521.38;4961471;28;20480;-76
2024/03/15 08:57:27;;;;;;;1.90;1.60;;;;;;;16.20;73.35;155522.66;4954085;28;20442;-76
2024/03/15 08:59:55;;;;;;;3.10;2.53;;;;;;;16.14;72.38;155508.38;4956303;28;20480;-77
2024/03/15 09:02:22;;;;;;;2.37;2.17;;;;;;;16.21;71.66;155525.25;4968043;28;20462;-76
2024/03/15 09:04:49;;;;;;;3.93;1.97;;;;;;;16.25;73.21;155535.66;4948908;28;20474;-76
2024/03/15 09:07:16;;;;;;;3.03;2.50;;;;;;;16.17;71.75;155514.88;4955492;28;20481;-76
2024/03/15 09:09:43;;;;;;;3.00;2.10;;;;;;;16.22;73.33;155529.16;4951398;28;20458;-76
2024/03/15 09:12:10;;;;;;;2.77;2.10;;;;;;;16.24;73.72;155534.34;4949422;28;20974;-76
2024/03/15 09:14:37;;;;;;;2.00;1.63;;;;;;;16.26;73.16;155539.56;4955248;28;20468;-76
2024/03/15 09:17:12;;;;;;;2.43;1.90;;;;;;;16.23;75.54;155531.75;4967091;28;20445;-77
2024/03/15 09:19:39;;;;;;;2.70;1.87;;;;;;;16.24;73.75;155533.06;4967782;28;21017;-75
2024/03/15 09:22:05;;;;;;;3.50;2.20;;;;;;;16.27;73.51;155540.84;4966272;28;20576;-76
2024/03/15 09:24:32;;;;;;;3.10;2.23;;;;;;;16.28;74.29;155543.47;4976785;28;21145;-76
2024/03/15 09:26:59;;;;;;;2.33;1.93;;;;;;;16.34;73.83;155559.06;4961664;28;20481;-76
2024/03/15 09:29:27;;;;;;;3.03;2.00;;;;;;;16.38;73.67;155569.47;4969221;28;20458;-76
2024/03/15 09:31:55;;;;;;;2.60;2.07;;;;;;;16.37;74.66;155568.16;4956668;28;20457;-76
2024/03/15 09:34:22;;;;;;;2.60;1.87;;;;;;;16.34;73.71;155559.06;4960578;28;20524;-76
2024/03/15 09:36:50;;;;;;;1.90;1.57;;;;;;;16.43;72.12;155582.47;4945200;28;20791;-76
2024/03/15 09:39:16;;;;;;;2.30;1.70;;;;;;;16.38;72.25;155570.78;4962983;28;20449;-76
2024/03/15 09:41:43;;;;;;;2.57;1.80;;;;;;;16.38;76.19;155569.47;4943917;28;21003;-76
2024/03/15 09:44:10;;;;;;;2.27;1.60;;;;;;;16.33;72.91;155556.47;4952166;28;20535;-76
2024/03/15 09:46:37;;;;;;;1.90;1.70;;;;;;;16.34;73.68;155559.06;4968608;28;20474;-76
2024/03/15 09:49:05;;;;;;;2.37;1.77;;;;;;;16.38;75.16;155570.78;4965356;28;20543;-76
2024/03/15 09:51:32;;;;;;;2.27;1.87;;;;;;;16.40;73.06;155574.66;4951017;28;20465;-75
2024/03/15 09:54:01;;;;;;;3.30;2.20;;;;;;;16.42;73.99;155579.88;4958995;28;20507;-76
2024/03/15 09:56:29;;;;;;;1.90;1.60;;;;;;;16.40;73.18;155574.66;4925537;28;20497;-75
2024/03/15 09:58:57;;;;;;;2.80;1.93;;;;;;;16.40;73.95;155574.66;4961448;28;20484;-75
2024/03/15 10:01:23;;;;;;;2.50;1.97;;;;;;;16.49;75.09;155598.09;4960848;28;20456;-75
2024/03/15 10:03:50;;;;;;;2.93;1.90;;;;;;;16.51;71.50;155601.97;4959996;28;20936;-75
2024/03/15 10:06:17;;;;;;;2.10;1.70;;;;;;;16.59;76.03;155624.16;4945256;28;20501;-75
2024/03/15 10:08:44;;;;;;;2.50;2.30;;;;;;;16.67;73.68;155643.66;4960465;28;20479;-76
2024/03/15 10:11:10;;;;;;;2.10;1.90;;;;;;;16.72;71.43;155657.97;4965189;28;20457;-75
2024/03/15 10:13:37;;;;;;;2.73;1.73;;;;;;;16.76;70.40;155668.38;4945825;28;21042;-75
2024/03/15 10:16:05;;;;;;;2.60;1.50;;;;;;;16.81;70.10;155681.38;4935257;28;21118;-76
2024/03/15 10:18:33;;;;;;;2.73;1.60;;;;;;;16.78;73.77;155672.28;4957224;28;20553;-75
2024/03/15 10:21:00;;;;;;;4.03;1.50;;;;;;;16.70;73.70;155652.78;4959190;28;20449;-76
2024/03/15 10:23:26;;;;;;;2.20;1.70;;;;;;;16.64;75.93;155637.16;4964088;28;20515;-75
2024/03/15 10:25:54;;;;;;;2.87;1.97;;;;;;;16.52;71.25;155604.59;4966672;28;20469;-75
2024/03/15 10:28:20;;;;;;;1.73;1.57;;;;;;;16.49;73.14;155596.78;4947319;28;20442;-77
2024/03/15 10:30:47;;;;;;;2.33;1.70;;;;;;;16.46;73.29;155590.28;4945923;28;20458;-75
2024/03/15 10:33:14;;;;;;;1.83;1.50;;;;;;;16.45;74.37;155587.66;4973858;28;20453;-76
2024/03/15 10:35:41;;;;;;;2.80;1.73;;;;;;;16.41;75.55;155577.28;4960624;28;20464;-76
2024/03/15 10:38:09;;;;;;;2.30;1.43;;;;;;;16.33;74.14;155556.47;4945040;28;21462;-76
2024/03/15 10:40:35;;;;;;;2.30;1.60;;;;;;;16.33;74.13;155556.47;4959447;28;20441;-76
2024/03/15 10:43:04;;;;;;;2.43;1.63;;;;;;;16.27;74.96;155542.16;4949807;28;20461;-76
2024/03/15 10:45:31;;;;;;;2.43;1.93;;;;;;;16.28;74.87;155543.47;4962082;28;20458;-76
2024/03/15 10:47:58;;;;;;;2.07;1.37;;;;;;;16.26;74.92;155539.56;4962393;28;20481;-76
2024/03/15 10:50:25;;;;;;;2.20;1.80;;;;;;;16.30;77.62;155548.66;4949627;28;20608;-76
2024/03/15 10:52:52;;;;;;;2.17;1.87;;;;;;;16.34;81.15;155559.06;4950136;28;20465;-76
2024/03/15 10:55:18;;;;;;;2.10;1.80;;;;;;;16.30;81.81;155548.66;4962150;28;20446;-76
2024/03/15 10:57:45;;;;;;;2.03;1.53;;;;;;;16.26;82.23;155538.25;4934205;28;20465;-76
2024/03/15 11:00:16;;;;;;;1.90;1.60;;;;;;;16.27;84.28;155540.84;4961114;28;20532;-76
2024/03/15 11:02:43;;;;;;;2.67;1.50;;;;;;;16.20;83.38;155522.66;4959231;28;20477;-76
2024/03/15 11:05:14;;;;;;;3.70;1.90;;;;;;;16.17;83.75;155516.16;4957365;28;20492;-77
2024/03/15 11:07:41;;;;;;;2.47;1.80;;;;;;;16.16;84.96;155512.25;4955262;28;20505;-76
2024/03/15 11:10:09;;;;;;;2.50;1.53;;;;;;;16.12;85.43;155503.16;4967017;28;20454;-76
2024/03/15 11:12:39;;;;;;;2.77;1.90;;;;;;;16.11;86.06;155499.25;4958980;28;20792;-76
2024/03/15 11:15:08;;;;;;;2.00;1.80;;;;;;;16.07;85.08;155488.88;4964951;28;20468;-76
2024/03/15 11:17:34;;;;;;;5.17;2.10;;;;;;;16.03;86.24;155479.75;4960686;28;21045;-76
2024/03/15 11:20:04;;;;;;;5.20;1.80;;;;;;;16.05;86.36;155483.63;4951188;28;20461;-76
2024/03/15 11:22:31;;;;;;;1.90;1.70;;;;;;;16.03;84.86;155478.44;4973742;28;20446;-76
2024/03/15 11:24:59;;;;;;;1.97;1.80;;;;;;;16.03;81.63;155479.75;4946438;28;20523;-75
2024/03/15 11:27:27;;;;;;;3.27;1.87;;;;;;;16.07;82.84;155488.88;4957385;28;20495;-76
2024/03/15 11:29:56;;;;;;;2.03;1.73;;;;;;;16.13;83.74;155504.44;4960887;28;20457;-75
2024/03/15 11:32:22;;;;;;;2.13;1.80;;;;;;;16.12;82.34;155501.88;4949744;28;20480;-75